sensor_id;sensor_type;location;lat;lon;timestamp;temperature;humidity
3023;DHT22;1521;53.584;9.938;2022-09-25T00:01:24;12.60;22.50
3023;DHT22;1521;53.584;9.938;2022-09-25T00:03:50;12.60;21.30
3023;DHT22;1521;53.584;9.938;2022-09-25T00:06:18;12.60;19.70
3023;DHT22;1521;53.584;9.938;2022-09-25T00:08:44;12.60;20.50
3023;DHT22;1521;53.584;9.938;2022-09-25T00:11:16;12.60;20.90
3023;DHT22;1521;53.584;9.938;2022-09-25T00:13:43;12.60;21.30
3023;DHT22;1521;53.584;9.938;2022-09-25T00:16:13;12.60;21.10
3023;DHT22;1521;53.584;9.938;2022-09-25T00:18:40;12.60;19.80
3023;DHT22;1521;53.584;9.938;2022-09-25T00:21:24;12.60;20.10
3023;DHT22;1521;53.584;9.938;2022-09-25T00:23:54;12.60;20.50
3023;DHT22;1521;53.584;9.938;2022-09-25T00:26:19;12.60;20.80
3023;DHT22;1521;53.584;9.938;2022-09-25T00:28:45;12.60;22.30
3023;DHT22;1521;53.584;9.938;2022-09-25T00:31:11;12.60;23.70
3023;DHT22;1521;53.584;9.938;2022-09-25T00:33:42;12.60;25.10
3023;DHT22;1521;53.584;9.938;2022-09-25T00:36:09;12.60;25.90
3023;DHT22;1521;53.584;9.938;2022-09-25T00:38:36;12.60;25.10
3023;DHT22;1521;53.584;9.938;2022-09-25T00:41:03;12.60;22.70
3023;DHT22;1521;53.584;9.938;2022-09-25T00:43:39;12.60;20.90
3023;DHT22;1521;53.584;9.938;2022-09-25T00:48:51;12.50;18.80
3023;DHT22;1521;53.584;9.938;2022-09-25T00:51:21;12.50;19.90
3023;DHT22;1521;53.584;9.938;2022-09-25T00:53:52;12.50;19.20
3023;DHT22;1521;53.584;9.938;2022-09-25T00:56:18;12.50;19.00
3023;DHT22;1521;53.584;9.938;2022-09-25T00:58:44;12.50;19.00
3023;DHT22;1521;53.584;9.938;2022-09-25T01:01:10;12.50;19.10
3023;DHT22;1521;53.584;9.938;2022-09-25T01:03:36;12.50;19.20
3023;DHT22;1521;53.584;9.938;2022-09-25T01:06:04;12.50;19.20
3023;DHT22;1521;53.584;9.938;2022-09-25T01:08:31;12.50;20.10
3023;DHT22;1521;53.584;9.938;2022-09-25T01:10:57;12.50;21.20
3023;DHT22;1521;53.584;9.938;2022-09-25T01:13:23;12.50;21.80
3023;DHT22;1521;53.584;9.938;2022-09-25T01:19:09;12.50;22.60
3023;DHT22;1521;53.584;9.938;2022-09-25T01:21:59;12.40;22.00
3023;DHT22;1521;53.584;9.938;2022-09-25T01:24:35;12.40;22.30
3023;DHT22;1521;53.584;9.938;2022-09-25T01:32:55;12.40;26.90
3023;DHT22;1521;53.584;9.938;2022-09-25T01:38:36;12.40;26.90
3023;DHT22;1521;53.584;9.938;2022-09-25T01:41:45;12.40;26.50
3023;DHT22;1521;53.584;9.938;2022-09-25T01:44:31;12.40;26.90
3023;DHT22;1521;53.584;9.938;2022-09-25T01:47:08;12.40;27.50
3023;DHT22;1521;53.584;9.938;2022-09-25T01:49:40;12.40;27.40
3023;DHT22;1521;53.584;9.938;2022-09-25T01:52:11;12.40;28.20
3023;DHT22;1521;53.584;9.938;2022-09-25T01:54:43;12.40;29.20
3023;DHT22;1521;53.584;9.938;2022-09-25T01:57:30;12.40;29.00
3023;DHT22;1521;53.584;9.938;2022-09-25T02:00:10;12.40;29.30
3023;DHT22;1521;53.584;9.938;2022-09-25T02:02:44;12.50;30.50
3023;DHT22;1521;53.584;9.938;2022-09-25T02:05:17;12.50;31.90
3023;DHT22;1521;53.584;9.938;2022-09-25T02:07:48;12.50;33.20
3023;DHT22;1521;53.584;9.938;2022-09-25T02:10:21;12.50;34.50
3023;DHT22;1521;53.584;9.938;2022-09-25T02:12:50;12.50;35.10
3023;DHT22;1521;53.584;9.938;2022-09-25T02:15:24;12.50;33.10
3023;DHT22;1521;53.584;9.938;2022-09-25T02:20:41;12.40;28.10
3023;DHT22;1521;53.584;9.938;2022-09-25T02:23:26;12.40;29.30
3023;DHT22;1521;53.584;9.938;2022-09-25T02:26:05;12.40;32.00
3023;DHT22;1521;53.584;9.938;2022-09-25T02:28:32;12.40;33.00
3023;DHT22;1521;53.584;9.938;2022-09-25T02:30:59;12.50;30.80
3023;DHT22;1521;53.584;9.938;2022-09-25T02:33:26;12.40;30.20
3023;DHT22;1521;53.584;9.938;2022-09-25T02:35:52;12.40;30.60
3023;DHT22;1521;53.584;9.938;2022-09-25T02:38:18;12.40;31.00
3023;DHT22;1521;53.584;9.938;2022-09-25T02:41:06;12.40;34.20
3023;DHT22;1521;53.584;9.938;2022-09-25T02:49:48;12.40;29.90
3023;DHT22;1521;53.584;9.938;2022-09-25T02:52:34;12.40;30.40
3023;DHT22;1521;53.584;9.938;2022-09-25T03:00:05;12.40;35.20
3023;DHT22;1521;53.584;9.938;2022-09-25T03:02:32;12.40;36.30
3023;DHT22;1521;53.584;9.938;2022-09-25T03:04:59;12.40;37.50
3023;DHT22;1521;53.584;9.938;2022-09-25T03:07:26;12.40;37.60
3023;DHT22;1521;53.584;9.938;2022-09-25T03:09:54;12.40;36.60
3023;DHT22;1521;53.584;9.938;2022-09-25T03:12:20;12.40;36.30
3023;DHT22;1521;53.584;9.938;2022-09-25T03:14:46;12.40;37.00
3023;DHT22;1521;53.584;9.938;2022-09-25T03:17:12;12.40;38.10
3023;DHT22;1521;53.584;9.938;2022-09-25T03:19:40;12.40;38.90
3023;DHT22;1521;53.584;9.938;2022-09-25T03:22:05;12.50;39.60
3023;DHT22;1521;53.584;9.938;2022-09-25T03:24:31;12.40;38.90
3023;DHT22;1521;53.584;9.938;2022-09-25T03:26:57;12.40;39.80
3023;DHT22;1521;53.584;9.938;2022-09-25T03:29:22;12.40;41.20
3023;DHT22;1521;53.584;9.938;2022-09-25T03:31:48;12.40;42.00
3023;DHT22;1521;53.584;9.938;2022-09-25T03:34:15;12.40;42.70
3023;DHT22;1521;53.584;9.938;2022-09-25T03:36:42;12.40;42.00
3023;DHT22;1521;53.584;9.938;2022-09-25T03:39:08;12.40;41.60
3023;DHT22;1521;53.584;9.938;2022-09-25T03:41:35;12.40;41.80
3023;DHT22;1521;53.584;9.938;2022-09-25T03:44:02;12.40;42.80
3023;DHT22;1521;53.584;9.938;2022-09-25T03:46:29;12.40;44.50
3023;DHT22;1521;53.584;9.938;2022-09-25T03:48:55;12.50;45.80
3023;DHT22;1521;53.584;9.938;2022-09-25T03:51:22;12.40;46.20
3023;DHT22;1521;53.584;9.938;2022-09-25T03:53:48;12.50;47.20
3023;DHT22;1521;53.584;9.938;2022-09-25T03:56:20;12.50;49.30
3023;DHT22;1521;53.584;9.938;2022-09-25T03:58:47;12.50;50.30
3023;DHT22;1521;53.584;9.938;2022-09-25T04:01:14;12.50;51.40
3023;DHT22;1521;53.584;9.938;2022-09-25T04:03:40;12.50;50.00
3023;DHT22;1521;53.584;9.938;2022-09-25T04:06:12;12.50;49.60
3023;DHT22;1521;53.584;9.938;2022-09-25T04:08:39;12.50;50.40
3023;DHT22;1521;53.584;9.938;2022-09-25T04:11:04;12.50;51.60
3023;DHT22;1521;53.584;9.938;2022-09-25T04:13:33;12.50;52.90
3023;DHT22;1521;53.584;9.938;2022-09-25T04:16:01;12.50;52.40
3023;DHT22;1521;53.584;9.938;2022-09-25T04:18:28;12.50;52.90
3023;DHT22;1521;53.584;9.938;2022-09-25T04:21:06;12.50;52.70
3023;DHT22;1521;53.584;9.938;2022-09-25T04:23:33;12.50;53.40
3023;DHT22;1521;53.584;9.938;2022-09-25T04:25:59;12.50;53.90
3023;DHT22;1521;53.584;9.938;2022-09-25T04:28:25;12.50;53.80
3023;DHT22;1521;53.584;9.938;2022-09-25T04:30:51;12.50;54.40
3023;DHT22;1521;53.584;9.938;2022-09-25T04:33:17;12.50;53.10
3023;DHT22;1521;53.584;9.938;2022-09-25T04:36:02;12.50;52.90
3023;DHT22;1521;53.584;9.938;2022-09-25T04:38:28;12.50;53.20
3023;DHT22;1521;53.584;9.938;2022-09-25T04:40:56;12.50;52.80
3023;DHT22;1521;53.584;9.938;2022-09-25T04:43:23;12.50;53.80
3023;DHT22;1521;53.584;9.938;2022-09-25T04:45:51;12.50;54.10
3023;DHT22;1521;53.584;9.938;2022-09-25T04:48:16;12.50;54.10
3023;DHT22;1521;53.584;9.938;2022-09-25T04:50:47;12.50;54.80
3023;DHT22;1521;53.584;9.938;2022-09-25T04:53:13;12.50;55.20
3023;DHT22;1521;53.584;9.938;2022-09-25T04:55:38;12.50;54.70
3023;DHT22;1521;53.584;9.938;2022-09-25T04:58:04;12.50;53.50
3023;DHT22;1521;53.584;9.938;2022-09-25T05:00:31;12.50;51.40
3023;DHT22;1521;53.584;9.938;2022-09-25T05:02:57;12.40;49.50
3023;DHT22;1521;53.584;9.938;2022-09-25T05:05:23;12.40;48.00
3023;DHT22;1521;53.584;9.938;2022-09-25T05:07:52;12.40;46.30
3023;DHT22;1521;53.584;9.938;2022-09-25T05:10:19;12.40;45.50
3023;DHT22;1521;53.584;9.938;2022-09-25T05:12:45;12.40;45.40
3023;DHT22;1521;53.584;9.938;2022-09-25T05:15:12;12.40;45.60
3023;DHT22;1521;53.584;9.938;2022-09-25T05:17:37;12.40;44.50
3023;DHT22;1521;53.584;9.938;2022-09-25T05:20:03;12.40;45.00
3023;DHT22;1521;53.584;9.938;2022-09-25T05:22:29;12.40;45.30
3023;DHT22;1521;53.584;9.938;2022-09-25T05:24:54;12.40;45.60
3023;DHT22;1521;53.584;9.938;2022-09-25T05:27:20;12.40;46.60
3023;DHT22;1521;53.584;9.938;2022-09-25T05:29:47;12.40;48.10
3023;DHT22;1521;53.584;9.938;2022-09-25T05:32:14;12.40;49.50
3023;DHT22;1521;53.584;9.938;2022-09-25T05:34:40;12.40;50.90
3023;DHT22;1521;53.584;9.938;2022-09-25T05:37:05;12.40;52.10
3023;DHT22;1521;53.584;9.938;2022-09-25T05:39:31;12.40;53.60
3023;DHT22;1521;53.584;9.938;2022-09-25T05:41:56;12.40;54.70
3023;DHT22;1521;53.584;9.938;2022-09-25T05:44:22;12.50;56.10
3023;DHT22;1521;53.584;9.938;2022-09-25T05:46:49;12.50;57.80
3023;DHT22;1521;53.584;9.938;2022-09-25T05:49:15;12.50;58.40
3023;DHT22;1521;53.584;9.938;2022-09-25T05:51:40;12.50;59.60
3023;DHT22;1521;53.584;9.938;2022-09-25T05:54:06;12.50;61.10
3023;DHT22;1521;53.584;9.938;2022-09-25T05:56:32;12.50;61.10
3023;DHT22;1521;53.584;9.938;2022-09-25T05:58:57;12.50;61.60
3023;DHT22;1521;53.584;9.938;2022-09-25T06:01:23;12.60;62.70
3023;DHT22;1521;53.584;9.938;2022-09-25T06:03:50;12.50;61.70
3023;DHT22;1521;53.584;9.938;2022-09-25T06:06:16;12.60;59.90
3023;DHT22;1521;53.584;9.938;2022-09-25T06:08:41;12.60;58.00
3023;DHT22;1521;53.584;9.938;2022-09-25T06:11:07;12.60;55.80
3023;DHT22;1521;53.584;9.938;2022-09-25T06:13:33;12.60;53.30
3023;DHT22;1521;53.584;9.938;2022-09-25T06:16:01;12.60;51.60
3023;DHT22;1521;53.584;9.938;2022-09-25T06:18:27;12.60;49.80
3023;DHT22;1521;53.584;9.938;2022-09-25T06:20:59;12.70;51.10
3023;DHT22;1521;53.584;9.938;2022-09-25T06:23:26;12.70;49.90
3023;DHT22;1521;53.584;9.938;2022-09-25T06:25:51;12.70;47.50
3023;DHT22;1521;53.584;9.938;2022-09-25T06:28:17;12.70;44.50
3023;DHT22;1521;53.584;9.938;2022-09-25T06:30:43;12.70;44.50
3023;DHT22;1521;53.584;9.938;2022-09-25T06:33:11;12.80;44.00
3023;DHT22;1521;53.584;9.938;2022-09-25T06:35:42;12.80;42.30
3023;DHT22;1521;53.584;9.938;2022-09-25T06:38:08;12.80;38.90
3023;DHT22;1521;53.584;9.938;2022-09-25T06:40:34;12.80;35.10
3023;DHT22;1521;53.584;9.938;2022-09-25T06:43:03;12.80;29.40
3023;DHT22;1521;53.584;9.938;2022-09-25T06:45:31;12.80;26.90
3023;DHT22;1521;53.584;9.938;2022-09-25T06:48:06;12.90;26.40
3023;DHT22;1521;53.584;9.938;2022-09-25T06:50:52;12.90;24.00
3023;DHT22;1521;53.584;9.938;2022-09-25T06:53:20;13.00;23.10
3023;DHT22;1521;53.584;9.938;2022-09-25T06:55:46;13.00;22.90
3023;DHT22;1521;53.584;9.938;2022-09-25T06:58:17;13.00;20.70
3023;DHT22;1521;53.584;9.938;2022-09-25T07:00:47;13.10;17.70
3023;DHT22;1521;53.584;9.938;2022-09-25T07:03:13;13.00;7.00
3023;DHT22;1521;53.584;9.938;2022-09-25T07:06:01;13.00;1.00
3023;DHT22;1521;53.584;9.938;2022-09-25T07:08:28;13.00;1.00
3023;DHT22;1521;53.584;9.938;2022-09-25T07:10:55;13.00;1.00
3023;DHT22;1521;53.584;9.938;2022-09-25T07:13:26;13.00;1.00
3023;DHT22;1521;53.584;9.938;2022-09-25T07:16:01;13.00;1.00
3023;DHT22;1521;53.584;9.938;2022-09-25T07:18:28;12.90;1.00
3023;DHT22;1521;53.584;9.938;2022-09-25T07:20:59;12.90;1.00
3023;DHT22;1521;53.584;9.938;2022-09-25T07:23:26;12.90;1.00
3023;DHT22;1521;53.584;9.938;2022-09-25T07:25:53;12.80;1.00
3023;DHT22;1521;53.584;9.938;2022-09-25T07:28:18;12.80;1.00
3023;DHT22;1521;53.584;9.938;2022-09-25T07:30:45;12.80;1.00
3023;DHT22;1521;53.584;9.938;2022-09-25T07:33:10;12.80;1.00
3023;DHT22;1521;53.584;9.938;2022-09-25T07:35:37;12.70;1.00
3023;DHT22;1521;53.584;9.938;2022-09-25T07:38:03;12.70;1.00
3023;DHT22;1521;53.584;9.938;2022-09-25T07:40:29;12.70;1.00
3023;DHT22;1521;53.584;9.938;2022-09-25T07:43:03;12.70;1.00
3023;DHT22;1521;53.584;9.938;2022-09-25T07:45:29;12.60;1.00
3023;DHT22;1521;53.584;9.938;2022-09-25T07:47:56;12.60;1.00
3023;DHT22;1521;53.584;9.938;2022-09-25T07:50:22;12.60;1.00
3023;DHT22;1521;53.584;9.938;2022-09-25T07:52:48;12.60;1.00
3023;DHT22;1521;53.584;9.938;2022-09-25T07:55:14;12.60;1.00
3023;DHT22;1521;53.584;9.938;2022-09-25T07:57:39;12.60;1.00
3023;DHT22;1521;53.584;9.938;2022-09-25T08:00:06;12.60;1.00
3023;DHT22;1521;53.584;9.938;2022-09-25T08:02:32;12.60;1.00
3023;DHT22;1521;53.584;9.938;2022-09-25T08:04:59;12.60;1.00
3023;DHT22;1521;53.584;9.938;2022-09-25T08:07:27;12.60;1.00
3023;DHT22;1521;53.584;9.938;2022-09-25T08:09:52;12.60;1.00
3023;DHT22;1521;53.584;9.938;2022-09-25T08:12:19;12.60;1.00
3023;DHT22;1521;53.584;9.938;2022-09-25T08:14:48;12.60;1.00
3023;DHT22;1521;53.584;9.938;2022-09-25T08:17:14;12.60;1.00
3023;DHT22;1521;53.584;9.938;2022-09-25T08:19:40;12.60;1.00
3023;DHT22;1521;53.584;9.938;2022-09-25T08:22:05;12.60;1.00
3023;DHT22;1521;53.584;9.938;2022-09-25T08:24:31;12.60;1.00
3023;DHT22;1521;53.584;9.938;2022-09-25T08:26:56;12.70;1.00
3023;DHT22;1521;53.584;9.938;2022-09-25T08:29:22;12.70;1.00
3023;DHT22;1521;53.584;9.938;2022-09-25T08:31:49;12.70;1.00
3023;DHT22;1521;53.584;9.938;2022-09-25T08:34:14;12.80;1.00
3023;DHT22;1521;53.584;9.938;2022-09-25T08:36:41;12.80;1.00
3023;DHT22;1521;53.584;9.938;2022-09-25T08:39:07;12.80;1.00
3023;DHT22;1521;53.584;9.938;2022-09-25T08:41:46;12.80;1.00
3023;DHT22;1521;53.584;9.938;2022-09-25T08:44:41;12.80;1.00
3023;DHT22;1521;53.584;9.938;2022-09-25T08:47:17;12.70;1.00
3023;DHT22;1521;53.584;9.938;2022-09-25T08:50:09;12.70;1.00
3023;DHT22;1521;53.584;9.938;2022-09-25T08:52:37;12.70;1.00
3023;DHT22;1521;53.584;9.938;2022-09-25T08:55:16;12.70;1.00
3023;DHT22;1521;53.584;9.938;2022-09-25T08:57:43;12.60;1.00
3023;DHT22;1521;53.584;9.938;2022-09-25T09:00:17;12.60;1.00
3023;DHT22;1521;53.584;9.938;2022-09-25T09:02:57;12.70;1.00
3023;DHT22;1521;53.584;9.938;2022-09-25T09:05:29;12.70;1.00
3023;DHT22;1521;53.584;9.938;2022-09-25T09:08:12;12.60;1.00
3023;DHT22;1521;53.584;9.938;2022-09-25T09:10:42;12.60;1.00
3023;DHT22;1521;53.584;9.938;2022-09-25T09:13:27;12.70;1.00
3023;DHT22;1521;53.584;9.938;2022-09-25T09:16:01;12.70;1.00
3023;DHT22;1521;53.584;9.938;2022-09-25T09:18:29;12.70;1.00
3023;DHT22;1521;53.584;9.938;2022-09-25T09:20:58;12.70;1.00
3023;DHT22;1521;53.584;9.938;2022-09-25T09:23:32;12.70;1.00
3023;DHT22;1521;53.584;9.938;2022-09-25T09:26:23;12.70;1.00
3023;DHT22;1521;53.584;9.938;2022-09-25T09:29:27;12.80;1.00
3023;DHT22;1521;53.584;9.938;2022-09-25T09:35:34;12.90;1.00
3023;DHT22;1521;53.584;9.938;2022-09-25T09:43:59;12.80;1.00
3023;DHT22;1521;53.584;9.938;2022-09-25T09:52:01;12.80;1.00
3023;DHT22;1521;53.584;9.938;2022-09-25T09:57:21;12.80;1.00
3023;DHT22;1521;53.584;9.938;2022-09-25T10:00:03;12.80;1.00
3023;DHT22;1521;53.584;9.938;2022-09-25T10:02:38;12.70;1.00
3023;DHT22;1521;53.584;9.938;2022-09-25T10:05:14;12.70;1.00
3023;DHT22;1521;53.584;9.938;2022-09-25T10:07:41;12.70;1.00
3023;DHT22;1521;53.584;9.938;2022-09-25T10:10:13;12.80;1.00
3023;DHT22;1521;53.584;9.938;2022-09-25T10:12:49;12.90;1.00
3023;DHT22;1521;53.584;9.938;2022-09-25T10:15:41;12.80;1.00
3023;DHT22;1521;53.584;9.938;2022-09-25T10:18:09;12.90;1.00
3023;DHT22;1521;53.584;9.938;2022-09-25T10:20:41;12.90;1.00
3023;DHT22;1521;53.584;9.938;2022-09-25T10:23:32;13.00;1.00
3023;DHT22;1521;53.584;9.938;2022-09-25T10:25:59;13.00;1.00
3023;DHT22;1521;53.584;9.938;2022-09-25T10:28:28;13.00;1.00
3023;DHT22;1521;53.584;9.938;2022-09-25T10:30:55;13.00;1.00
3023;DHT22;1521;53.584;9.938;2022-09-25T10:33:24;13.00;1.00
3023;DHT22;1521;53.584;9.938;2022-09-25T10:35:51;13.00;1.00
3023;DHT22;1521;53.584;9.938;2022-09-25T10:38:44;13.10;1.00
3023;DHT22;1521;53.584;9.938;2022-09-25T10:41:17;13.10;1.00
3023;DHT22;1521;53.584;9.938;2022-09-25T10:43:56;13.10;1.00
3023;DHT22;1521;53.584;9.938;2022-09-25T10:46:28;13.10;1.00
3023;DHT22;1521;53.584;9.938;2022-09-25T10:49:20;13.10;1.00
3023;DHT22;1521;53.584;9.938;2022-09-25T10:52:07;13.10;1.00
3023;DHT22;1521;53.584;9.938;2022-09-25T10:54:34;13.20;1.00
3023;DHT22;1521;53.584;9.938;2022-09-25T10:57:00;13.20;1.00
3023;DHT22;1521;53.584;9.938;2022-09-25T10:59:27;13.20;1.00
3023;DHT22;1521;53.584;9.938;2022-09-25T11:01:53;13.30;1.00
3023;DHT22;1521;53.584;9.938;2022-09-25T11:04:31;13.30;1.00
3023;DHT22;1521;53.584;9.938;2022-09-25T11:07:05;13.30;1.00
3023;DHT22;1521;53.584;9.938;2022-09-25T11:09:32;13.30;1.00
3023;DHT22;1521;53.584;9.938;2022-09-25T11:12:11;13.30;1.00
3023;DHT22;1521;53.584;9.938;2022-09-25T11:14:37;13.30;1.00
3023;DHT22;1521;53.584;9.938;2022-09-25T11:17:04;13.20;99.90
3023;DHT22;1521;53.584;9.938;2022-09-25T11:19:33;13.10;99.90
3023;DHT22;1521;53.584;9.938;2022-09-25T11:22:26;13.20;99.90
3023;DHT22;1521;53.584;9.938;2022-09-25T11:25:09;13.20;1.00
3023;DHT22;1521;53.584;9.938;2022-09-25T11:27:41;13.20;1.00
3023;DHT22;1521;53.584;9.938;2022-09-25T11:30:16;13.30;1.00
3023;DHT22;1521;53.584;9.938;2022-09-25T11:33:20;13.20;1.00
3023;DHT22;1521;53.584;9.938;2022-09-25T11:38:46;13.20;99.90
3023;DHT22;1521;53.584;9.938;2022-09-25T11:41:59;13.20;99.90
3023;DHT22;1521;53.584;9.938;2022-09-25T11:44:39;13.20;99.90
3023;DHT22;1521;53.584;9.938;2022-09-25T11:47:27;13.30;99.90
3023;DHT22;1521;53.584;9.938;2022-09-25T11:49:56;13.40;99.90
3023;DHT22;1521;53.584;9.938;2022-09-25T11:55:35;13.40;99.90
3023;DHT22;1521;53.584;9.938;2022-09-25T12:12:19;13.30;99.90
3023;DHT22;1521;53.584;9.938;2022-09-25T12:20:46;13.40;99.90
3023;DHT22;1521;53.584;9.938;2022-09-25T12:31:27;13.30;99.90
3023;DHT22;1521;53.584;9.938;2022-09-25T12:39:30;13.30;99.90
3023;DHT22;1521;53.584;9.938;2022-09-25T12:45:24;13.30;99.90
3023;DHT22;1521;53.584;9.938;2022-09-25T12:48:23;13.40;99.90
3023;DHT22;1521;53.584;9.938;2022-09-25T12:51:11;13.40;99.90
3023;DHT22;1521;53.584;9.938;2022-09-25T12:53:49;13.50;99.90
3023;DHT22;1521;53.584;9.938;2022-09-25T12:56:45;13.60;99.90
3023;DHT22;1521;53.584;9.938;2022-09-25T12:59:36;13.70;99.90
3023;DHT22;1521;53.584;9.938;2022-09-25T13:05:05;13.70;99.90
3023;DHT22;1521;53.584;9.938;2022-09-25T13:07:48;13.70;18.50
3023;DHT22;1521;53.584;9.938;2022-09-25T13:10:28;13.60;1.90
3023;DHT22;1521;53.584;9.938;2022-09-25T13:12:58;13.70;30.30
3023;DHT22;1521;53.584;9.938;2022-09-25T13:15:29;13.70;10.50
3023;DHT22;1521;53.584;9.938;2022-09-25T13:17:55;13.80;30.40
3023;DHT22;1521;53.584;9.938;2022-09-25T13:23:04;13.90;1.00
3023;DHT22;1521;53.584;9.938;2022-09-25T13:25:30;14.00;1.00
3023;DHT22;1521;53.584;9.938;2022-09-25T13:28:07;14.00;1.00
3023;DHT22;1521;53.584;9.938;2022-09-25T13:30:33;14.00;1.00
3023;DHT22;1521;53.584;9.938;2022-09-25T13:33:01;14.10;1.00
3023;DHT22;1521;53.584;9.938;2022-09-25T13:35:31;14.10;1.00
3023;DHT22;1521;53.584;9.938;2022-09-25T13:38:14;14.10;1.00
3023;DHT22;1521;53.584;9.938;2022-09-25T13:41:03;14.10;1.00
3023;DHT22;1521;53.584;9.938;2022-09-25T13:43:32;14.00;1.00
3023;DHT22;1521;53.584;9.938;2022-09-25T13:46:27;14.10;1.00
3023;DHT22;1521;53.584;9.938;2022-09-25T13:49:51;14.00;1.00
3023;DHT22;1521;53.584;9.938;2022-09-25T13:52:28;14.00;1.00
3023;DHT22;1521;53.584;9.938;2022-09-25T14:03:35;13.80;1.00
3023;DHT22;1521;53.584;9.938;2022-09-25T15:50:45;14.80;1.00
3023;DHT22;1521;53.584;9.938;2022-09-25T15:53:31;14.70;1.00
3023;DHT22;1521;53.584;9.938;2022-09-25T15:59:03;14.50;99.90
3023;DHT22;1521;53.584;9.938;2022-09-25T16:01:32;14.50;6.30
3023;DHT22;1521;53.584;9.938;2022-09-25T16:04:22;14.50;99.90
3023;DHT22;1521;53.584;9.938;2022-09-25T16:09:56;14.30;1.00
3023;DHT22;1521;53.584;9.938;2022-09-25T16:12:28;14.20;99.90
3023;DHT22;1521;53.584;9.938;2022-09-25T16:14:55;14.10;99.90
3023;DHT22;1521;53.584;9.938;2022-09-25T16:17:39;14.10;1.00
3023;DHT22;1521;53.584;9.938;2022-09-25T16:20:08;14.00;1.00
3023;DHT22;1521;53.584;9.938;2022-09-25T16:22:53;13.90;1.00
3023;DHT22;1521;53.584;9.938;2022-09-25T16:25:25;13.70;99.90
3023;DHT22;1521;53.584;9.938;2022-09-25T16:28:19;13.60;99.90
3023;DHT22;1521;53.584;9.938;2022-09-25T16:30:48;13.50;1.00
3023;DHT22;1521;53.584;9.938;2022-09-25T16:33:39;13.40;1.00
3023;DHT22;1521;53.584;9.938;2022-09-25T16:36:11;13.30;1.00
3023;DHT22;1521;53.584;9.938;2022-09-25T16:38:41;13.20;1.00
3023;DHT22;1521;53.584;9.938;2022-09-25T16:43:39;13.00;1.00
3023;DHT22;1521;53.584;9.938;2022-09-25T16:46:14;12.90;1.00
3023;DHT22;1521;53.584;9.938;2022-09-25T16:48:40;12.80;1.00
3023;DHT22;1521;53.584;9.938;2022-09-25T16:51:20;12.70;1.00
3023;DHT22;1521;53.584;9.938;2022-09-25T16:53:47;12.60;1.00
3023;DHT22;1521;53.584;9.938;2022-09-25T16:56:28;12.50;22.90
3023;DHT22;1521;53.584;9.938;2022-09-25T16:58:55;12.40;53.10
3023;DHT22;1521;53.584;9.938;2022-09-25T17:01:23;12.40;99.90
3023;DHT22;1521;53.584;9.938;2022-09-25T17:03:49;12.30;99.90
3023;DHT22;1521;53.584;9.938;2022-09-25T17:06:22;12.20;99.90
3023;DHT22;1521;53.584;9.938;2022-09-25T17:08:49;12.10;99.90
3023;DHT22;1521;53.584;9.938;2022-09-25T17:11:16;12.00;99.90
3023;DHT22;1521;53.584;9.938;2022-09-25T17:13:43;11.90;99.90
3023;DHT22;1521;53.584;9.938;2022-09-25T17:16:09;11.90;99.90
3023;DHT22;1521;53.584;9.938;2022-09-25T17:18:35;11.80;1.00
3023;DHT22;1521;53.584;9.938;2022-09-25T17:21:05;11.80;1.00
3023;DHT22;1521;53.584;9.938;2022-09-25T17:23:31;11.70;1.00
3023;DHT22;1521;53.584;9.938;2022-09-25T17:26:13;11.70;1.00
3023;DHT22;1521;53.584;9.938;2022-09-25T17:28:39;11.60;1.00
3023;DHT22;1521;53.584;9.938;2022-09-25T17:31:08;11.60;13.40
3023;DHT22;1521;53.584;9.938;2022-09-25T17:33:33;11.50;99.90
3023;DHT22;1521;53.584;9.938;2022-09-25T17:36:00;11.50;99.90
3023;DHT22;1521;53.584;9.938;2022-09-25T17:38:30;11.40;99.90
3023;DHT22;1521;53.584;9.938;2022-09-25T17:41:00;11.40;99.90
3023;DHT22;1521;53.584;9.938;2022-09-25T17:43:26;11.40;99.90
3023;DHT22;1521;53.584;9.938;2022-09-25T17:45:54;11.30;1.00
3023;DHT22;1521;53.584;9.938;2022-09-25T17:48:22;11.30;1.00
3023;DHT22;1521;53.584;9.938;2022-09-25T17:50:49;11.30;1.00
3023;DHT22;1521;53.584;9.938;2022-09-25T17:53:20;11.20;51.30
3023;DHT22;1521;53.584;9.938;2022-09-25T17:55:47;11.20;99.90
3023;DHT22;1521;53.584;9.938;2022-09-25T17:58:13;11.10;99.90
3023;DHT22;1521;53.584;9.938;2022-09-25T18:00:41;11.10;99.90
3023;DHT22;1521;53.584;9.938;2022-09-25T18:03:12;11.10;1.00
3023;DHT22;1521;53.584;9.938;2022-09-25T18:05:39;11.00;1.00
3023;DHT22;1521;53.584;9.938;2022-09-25T18:08:04;11.00;1.00
3023;DHT22;1521;53.584;9.938;2022-09-25T18:10:30;11.00;99.90
3023;DHT22;1521;53.584;9.938;2022-09-25T18:12:58;10.90;99.90
3023;DHT22;1521;53.584;9.938;2022-09-25T18:15:25;10.90;99.90
3023;DHT22;1521;53.584;9.938;2022-09-25T18:17:51;10.90;1.00
3023;DHT22;1521;53.584;9.938;2022-09-25T18:20:17;10.90;1.00
3023;DHT22;1521;53.584;9.938;2022-09-25T18:23:01;10.80;1.00
3023;DHT22;1521;53.584;9.938;2022-09-25T18:25:30;10.70;1.00
3023;DHT22;1521;53.584;9.938;2022-09-25T18:27:56;10.70;99.90
3023;DHT22;1521;53.584;9.938;2022-09-25T18:30:22;10.60;99.90
3023;DHT22;1521;53.584;9.938;2022-09-25T18:32:52;10.60;69.60
3023;DHT22;1521;53.584;9.938;2022-09-25T18:35:18;10.50;99.90
3023;DHT22;1521;53.584;9.938;2022-09-25T18:37:44;10.50;1.00
3023;DHT22;1521;53.584;9.938;2022-09-25T18:40:11;10.40;99.90
3023;DHT22;1521;53.584;9.938;2022-09-25T18:42:37;10.40;99.90
3023;DHT22;1521;53.584;9.938;2022-09-25T18:45:04;10.50;1.00
3023;DHT22;1521;53.584;9.938;2022-09-25T18:47:30;10.40;1.00
3023;DHT22;1521;53.584;9.938;2022-09-25T18:49:56;10.40;64.20
3023;DHT22;1521;53.584;9.938;2022-09-25T18:52:22;10.30;99.90
3023;DHT22;1521;53.584;9.938;2022-09-25T18:54:48;10.40;99.90
3023;DHT22;1521;53.584;9.938;2022-09-25T18:57:14;10.30;1.00
3023;DHT22;1521;53.584;9.938;2022-09-25T18:59:40;10.20;99.90
3023;DHT22;1521;53.584;9.938;2022-09-25T19:02:23;10.30;1.00
3023;DHT22;1521;53.584;9.938;2022-09-25T19:04:50;10.20;99.90
3023;DHT22;1521;53.584;9.938;2022-09-25T19:07:17;10.20;1.00
3023;DHT22;1521;53.584;9.938;2022-09-25T19:09:44;10.20;1.00
3023;DHT22;1521;53.584;9.938;2022-09-25T19:12:09;10.10;1.00
3023;DHT22;1521;53.584;9.938;2022-09-25T19:14:44;10.10;99.90
3023;DHT22;1521;53.584;9.938;2022-09-25T19:17:11;10.00;1.00
3023;DHT22;1521;53.584;9.938;2022-09-25T19:19:37;10.00;1.00
3023;DHT22;1521;53.584;9.938;2022-09-25T19:22:17;9.90;1.00
3023;DHT22;1521;53.584;9.938;2022-09-25T19:24:44;9.90;99.90
3023;DHT22;1521;53.584;9.938;2022-09-25T19:27:11;9.90;1.00
3023;DHT22;1521;53.584;9.938;2022-09-25T19:29:37;9.90;23.50
3023;DHT22;1521;53.584;9.938;2022-09-25T19:32:04;9.80;99.90
3023;DHT22;1521;53.584;9.938;2022-09-25T19:34:30;9.80;99.90
3023;DHT22;1521;53.584;9.938;2022-09-25T19:36:56;9.80;1.00
3023;DHT22;1521;53.584;9.938;2022-09-25T19:39:22;9.80;1.00
3023;DHT22;1521;53.584;9.938;2022-09-25T19:41:47;9.70;1.00
3023;DHT22;1521;53.584;9.938;2022-09-25T19:44:13;9.70;1.00
3023;DHT22;1521;53.584;9.938;2022-09-25T19:46:41;9.60;1.00
3023;DHT22;1521;53.584;9.938;2022-09-25T19:49:07;9.60;1.00
3023;DHT22;1521;53.584;9.938;2022-09-25T19:51:32;9.60;1.00
3023;DHT22;1521;53.584;9.938;2022-09-25T19:53:58;9.50;99.90
3023;DHT22;1521;53.584;9.938;2022-09-25T19:56:23;9.50;99.90
3023;DHT22;1521;53.584;9.938;2022-09-25T19:58:49;9.50;99.90
3023;DHT22;1521;53.584;9.938;2022-09-25T20:01:21;9.50;99.90
3023;DHT22;1521;53.584;9.938;2022-09-25T20:03:48;9.50;1.00
3023;DHT22;1521;53.584;9.938;2022-09-25T20:06:14;9.50;1.00
3023;DHT22;1521;53.584;9.938;2022-09-25T20:08:42;9.50;1.00
3023;DHT22;1521;53.584;9.938;2022-09-25T20:11:19;9.40;1.00